Time;durP1;ratioP1;P1;durP2;ratioP2;P2;SDS_P1;SDS_P2;PMS_P1;PMS_P2;Temp;Humidity;BMP_temperature;BMP_pressure;BME280_temperature;BME280_humidity;BME280_pressure;Samples;Min_cycle;Max_cycle;Signal;HPM_P1;HPM_P2
2022/01/15 00:00:04;;;;;;;32.97;24.23;;;;;;;;;;4958252;28;20204;-77
2022/01/15 00:02:30;;;;;;;37.28;24.20;;;;;;;;;;4963104;29;20647;-77
2022/01/15 00:04:56;;;;;;;37.58;23.88;;;;;;;;;;4946778;28;20184;-77
2022/01/15 00:07:22;;;;;;;29.50;22.65;;;;;;;;;;4963794;29;20180;-77
2022/01/15 00:09:50;;;;;;;34.90;25.45;;;;;;;;;;4955178;29;20378;-77
2022/01/15 00:12:16;;;;;;;37.08;24.20;;;;;;;;;;4955630;28;20197;-77
2022/01/15 00:14:43;;;;;;;31.73;23.70;;;;;;;;;;4961977;28;20189;-77
2022/01/15 00:17:31;;;;;;;34.30;22.98;;;;;;;;;;4961639;29;20184;-77
2022/01/15 00:19:57;;;;;;;30.70;22.20;;;;;;;;;;4944588;29;20176;-77
2022/01/15 00:22:23;;;;;;;30.00;21.60;;;;;;;;;;4945781;29;20231;-77
2022/01/15 00:24:50;;;;;;;32.42;21.73;;;;;;;;;;4993095;28;20209;-77
2022/01/15 00:27:16;;;;;;;35.78;23.33;;;;;;;;;;5022145;28;20520;-77
2022/01/15 00:29:42;;;;;;;33.85;22.80;;;;;;;;;;5021262;28;20209;-77
2022/01/15 00:32:09;;;;;;;28.17;21.05;;;;;;;;;;5021808;28;20262;-77
2022/01/15 00:34:35;;;;;;;36.60;22.67;;;;;;;;;;5022545;28;20245;-77
2022/01/15 00:37:02;;;;;;;33.53;22.95;;;;;;;;;;5020776;28;20193;-78
2022/01/15 00:39:28;;;;;;;34.20;23.80;;;;;;;;;;5013348;28;20599;-77
2022/01/15 00:41:54;;;;;;;36.08;22.15;;;;;;;;;;4990544;28;20284;-77
2022/01/15 00:44:20;;;;;;;38.35;22.80;;;;;;;;;;5001581;28;20235;-78
2022/01/15 00:46:46;;;;;;;34.42;23.63;;;;;;;;;;4988425;28;20187;-78
2022/01/15 00:49:12;;;;;;;32.28;21.55;;;;;;;;;;4999930;28;20183;-78
2022/01/15 00:51:38;;;;;;;26.50;19.27;;;;;;;;;;4993814;28;20702;-78
2022/01/15 00:54:04;;;;;;;28.08;20.50;;;;;;;;;;4990554;28;20194;-77
2022/01/15 00:56:31;;;;;;;34.53;22.13;;;;;;;;;;4988332;28;20181;-78
2022/01/15 00:58:57;;;;;;;33.60;23.60;;;;;;;;;;4985967;28;20258;-78
2022/01/15 01:01:23;;;;;;;29.55;20.08;;;;;;;;;;4991213;28;20264;-78
2022/01/15 01:03:49;;;;;;;32.10;22.27;;;;;;;;;;4990004;28;20198;-78
2022/01/15 01:06:16;;;;;;;32.20;20.85;;;;;;;;;;5003820;28;20190;-78
2022/01/15 01:08:42;;;;;;;32.72;20.83;;;;;;;;;;4988985;28;20187;-78
2022/01/15 01:11:22;;;;;;;33.67;20.42;;;;;;;;;;4984748;28;20184;-78
2022/01/15 01:24:31;;;;;;;27.42;20.27;;;;;;;;;;5006385;28;20222;-78
2022/01/15 01:27:04;;;;;;;30.85;19.88;;;;;;;;;;4989755;28;20551;-78
2022/01/15 01:29:52;;;;;;;29.33;19.88;;;;;;;;;;4987407;28;20178;-78
2022/01/15 01:34:50;;;;;;;26.55;18.52;;;;;;;;;;5004601;28;20207;-78
2022/01/15 01:37:24;;;;;;;26.52;18.90;;;;;;;;;;5006136;28;20171;-78
2022/01/15 01:39:55;;;;;;;35.03;19.40;;;;;;;;;;5005774;28;20226;-78
2022/01/15 01:45:08;;;;;;;25.88;19.85;;;;;;;;;;5019124;28;20191;-78
2022/01/15 01:47:41;;;;;;;27.92;20.92;;;;;;;;;;5020977;28;20206;-78
2022/01/15 01:50:07;;;;;;;30.65;20.35;;;;;;;;;;5019175;28;20182;-78
2022/01/15 01:52:33;;;;;;;31.55;20.30;;;;;;;;;;5025331;28;20174;-78
2022/01/15 01:54:59;;;;;;;29.08;20.08;;;;;;;;;;5023859;28;20214;-78
2022/01/15 01:57:25;;;;;;;28.48;18.20;;;;;;;;;;5024991;28;20217;-79
2022/01/15 01:59:51;;;;;;;32.60;21.77;;;;;;;;;;5024424;28;20186;-78
2022/01/15 02:02:17;;;;;;;33.60;21.40;;;;;;;;;;5023279;28;20267;-78
2022/01/15 02:04:43;;;;;;;27.58;19.45;;;;;;;;;;5025490;28;20683;-78
2022/01/15 02:07:09;;;;;;;29.85;20.25;;;;;;;;;;5023945;28;20234;-78
2022/01/15 02:09:35;;;;;;;26.85;17.92;;;;;;;;;;5024155;28;20202;-78
2022/01/15 02:12:01;;;;;;;24.58;18.88;;;;;;;;;;5024171;28;20214;-78
2022/01/15 02:14:31;;;;;;;30.75;18.83;;;;;;;;;;5025024;28;20197;-78
2022/01/15 02:16:57;;;;;;;24.95;17.80;;;;;;;;;;5023855;28;20249;-78
2022/01/15 02:19:30;;;;;;;29.23;20.73;;;;;;;;;;5024350;28;20174;-78
2022/01/15 02:24:41;;;;;;;26.85;16.58;;;;;;;;;;5022415;28;20217;-78
2022/01/15 02:27:07;;;;;;;27.40;18.00;;;;;;;;;;5024348;28;20183;-78
2022/01/15 02:29:33;;;;;;;28.70;18.67;;;;;;;;;;5023516;28;20252;-78
2022/01/15 02:31:59;;;;;;;23.92;17.63;;;;;;;;;;5023326;28;20174;-78
2022/01/15 02:34:25;;;;;;;25.23;16.70;;;;;;;;;;5025556;28;20208;-78
2022/01/15 02:36:51;;;;;;;31.23;19.35;;;;;;;;;;5024386;28;20190;-78
2022/01/15 02:39:17;;;;;;;27.77;19.40;;;;;;;;;;5022408;28;20222;-78
2022/01/15 02:41:43;;;;;;;23.80;15.73;;;;;;;;;;5022404;28;20664;-78
2022/01/15 02:44:15;;;;;;;23.88;16.02;;;;;;;;;;5023109;28;20981;-78
2022/01/15 02:49:17;;;;;;;25.00;16.85;;;;;;;;;;5025233;28;20178;-78
2022/01/15 02:51:43;;;;;;;25.38;18.15;;;;;;;;;;5023702;28;20212;-78
2022/01/15 02:54:09;;;;;;;28.85;18.88;;;;;;;;;;5021639;28;20478;-78
2022/01/15 02:56:40;;;;;;;22.92;16.02;;;;;;;;;;5024476;28;20193;-78
2022/01/15 02:59:07;;;;;;;24.38;16.40;;;;;;;;;;5021601;28;20204;-77
2022/01/15 03:01:34;;;;;;;30.73;18.92;;;;;;;;;;5020228;28;20185;-78
2022/01/15 03:04:00;;;;;;;25.23;17.55;;;;;;;;;;5031727;28;20206;-78
2022/01/15 03:06:27;;;;;;;29.30;17.80;;;;;;;;;;5019335;28;20561;-78
2022/01/15 03:08:53;;;;;;;27.10;17.70;;;;;;;;;;5023151;28;20190;-78
2022/01/15 03:11:20;;;;;;;21.17;16.27;;;;;;;;;;5021909;28;20189;-78
2022/01/15 03:13:46;;;;;;;27.00;18.67;;;;;;;;;;5023212;28;20171;-78
2022/01/15 03:16:15;;;;;;;33.05;18.83;;;;;;;;;;5021784;28;20696;-78
2022/01/15 03:18:41;;;;;;;28.42;17.25;;;;;;;;;;5023175;28;20190;-78
2022/01/15 03:21:07;;;;;;;24.30;18.38;;;;;;;;;;5023056;28;20194;-78
2022/01/15 03:23:33;;;;;;;27.50;18.33;;;;;;;;;;5023197;28;20305;-78
2022/01/15 03:25:59;;;;;;;25.58;18.77;;;;;;;;;;5022390;28;20174;-78
2022/01/15 03:28:25;;;;;;;24.10;18.77;;;;;;;;;;5023863;28;20177;-78
2022/01/15 03:30:51;;;;;;;26.13;17.90;;;;;;;;;;5020573;28;20191;-78
2022/01/15 03:33:17;;;;;;;34.47;19.17;;;;;;;;;;5023483;28;20298;-78
2022/01/15 03:35:43;;;;;;;25.73;19.48;;;;;;;;;;5022728;28;20182;-78
2022/01/15 03:38:09;;;;;;;25.85;18.98;;;;;;;;;;5021541;28;20191;-78
2022/01/15 03:40:36;;;;;;;27.38;19.25;;;;;;;;;;5010094;28;20226;-78
2022/01/15 03:43:03;;;;;;;25.48;18.38;;;;;;;;;;4991331;28;20285;-78
2022/01/15 03:45:29;;;;;;;27.25;16.73;;;;;;;;;;4990601;28;20233;-78
2022/01/15 03:47:58;;;;;;;26.17;17.42;;;;;;;;;;4992058;28;20206;-78
2022/01/15 03:50:25;;;;;;;25.08;17.27;;;;;;;;;;4988011;28;20580;-78
2022/01/15 03:52:51;;;;;;;28.90;16.95;;;;;;;;;;5006427;28;20598;-78
2022/01/15 03:55:18;;;;;;;22.42;17.63;;;;;;;;;;5007676;28;20179;-78
2022/01/15 03:57:44;;;;;;;29.95;20.48;;;;;;;;;;5005664;28;20257;-78
2022/01/15 04:00:12;;;;;;;30.00;17.35;;;;;;;;;;4991118;28;20250;-78
2022/01/15 04:02:38;;;;;;;26.30;18.50;;;;;;;;;;4989539;28;20542;-78
2022/01/15 04:05:04;;;;;;;27.73;16.65;;;;;;;;;;4985230;28;20615;-78
2022/01/15 04:07:30;;;;;;;26.90;17.90;;;;;;;;;;4999577;28;20180;-78
2022/01/15 04:09:56;;;;;;;34.10;19.60;;;;;;;;;;4989512;28;20261;-78
2022/01/15 04:12:22;;;;;;;27.17;18.52;;;;;;;;;;4990911;28;20184;-78
2022/01/15 04:14:48;;;;;;;28.58;18.08;;;;;;;;;;4990549;28;20253;-78
2022/01/15 04:17:14;;;;;;;30.25;19.77;;;;;;;;;;5000698;28;20215;-78
2022/01/15 04:19:41;;;;;;;28.38;19.05;;;;;;;;;;4991112;28;20183;-78
2022/01/15 04:22:07;;;;;;;22.70;17.55;;;;;;;;;;5006800;28;20660;-78
2022/01/15 04:24:33;;;;;;;30.85;18.20;;;;;;;;;;4991351;28;20214;-78
2022/01/15 04:26:59;;;;;;;29.67;18.60;;;;;;;;;;4990313;28;20182;-78
2022/01/15 04:29:25;;;;;;;28.77;16.60;;;;;;;;;;5002715;28;20254;-78
2022/01/15 04:31:51;;;;;;;26.17;17.67;;;;;;;;;;5002070;28;20174;-78
2022/01/15 04:34:17;;;;;;;33.05;18.85;;;;;;;;;;4991428;28;20179;-78
2022/01/15 04:36:43;;;;;;;25.70;18.20;;;;;;;;;;5005009;28;20219;-78
2022/01/15 04:39:10;;;;;;;27.98;17.83;;;;;;;;;;4995948;28;20253;-78
2022/01/15 04:41:36;;;;;;;26.42;18.15;;;;;;;;;;5021257;28;20190;-78
2022/01/15 04:44:03;;;;;;;28.90;18.30;;;;;;;;;;5022422;28;20218;-78
2022/01/15 04:46:29;;;;;;;26.70;16.85;;;;;;;;;;5021992;28;20242;-78
2022/01/15 04:48:55;;;;;;;27.45;17.73;;;;;;;;;;5021163;28;20193;-78
2022/01/15 04:51:21;;;;;;;28.67;18.65;;;;;;;;;;5021553;28;20183;-78
2022/01/15 04:53:47;;;;;;;24.30;16.60;;;;;;;;;;5020269;28;20205;-78
2022/01/15 04:56:13;;;;;;;33.30;17.65;;;;;;;;;;5020297;28;20679;-78
2022/01/15 04:58:39;;;;;;;26.95;17.83;;;;;;;;;;5011705;28;20183;-78
2022/01/15 05:01:05;;;;;;;30.00;17.83;;;;;;;;;;5020855;28;20194;-78
2022/01/15 05:03:33;;;;;;;25.77;17.40;;;;;;;;;;5019172;28;20194;-78
2022/01/15 05:05:59;;;;;;;27.55;19.10;;;;;;;;;;5021584;28;20189;-78
2022/01/15 05:08:25;;;;;;;22.45;16.63;;;;;;;;;;5019519;28;20267;-78
2022/01/15 05:10:53;;;;;;;24.55;17.60;;;;;;;;;;5022145;28;20249;-78
2022/01/15 05:13:24;;;;;;;23.90;18.00;;;;;;;;;;5022507;28;20261;-78
2022/01/15 05:15:50;;;;;;;23.05;17.00;;;;;;;;;;5020605;28;20266;-78
2022/01/15 05:18:16;;;;;;;29.50;18.77;;;;;;;;;;5019963;28;20224;-78
2022/01/15 05:20:44;;;;;;;29.13;17.60;;;;;;;;;;5021363;28;20186;-77
2022/01/15 05:23:10;;;;;;;27.17;17.73;;;;;;;;;;5019190;28;20210;-78
2022/01/15 05:25:36;;;;;;;31.45;18.42;;;;;;;;;;5023321;28;20198;-78
2022/01/15 05:28:03;;;;;;;29.02;17.10;;;;;;;;;;5026543;28;20236;-78
2022/01/15 05:30:30;;;;;;;28.63;17.42;;;;;;;;;;5027132;28;20254;-78
2022/01/15 05:32:56;;;;;;;26.35;17.52;;;;;;;;;;5026199;28;20214;-78
2022/01/15 05:35:26;;;;;;;29.05;17.08;;;;;;;;;;5026936;28;20223;-78
2022/01/15 05:37:52;;;;;;;22.48;17.45;;;;;;;;;;5028750;28;20170;-78
2022/01/15 05:40:18;;;;;;;24.55;17.42;;;;;;;;;;5028160;28;20218;-78
2022/01/15 05:42:46;;;;;;;28.02;18.38;;;;;;;;;;5026512;28;20257;-78
2022/01/15 05:45:12;;;;;;;27.15;19.33;;;;;;;;;;5025774;28;20244;-78
2022/01/15 05:47:38;;;;;;;25.85;16.65;;;;;;;;;;5027385;28;20216;-78
2022/01/15 05:50:04;;;;;;;26.23;18.23;;;;;;;;;;5025965;28;20183;-78
2022/01/15 05:52:30;;;;;;;21.42;16.60;;;;;;;;;;5028605;28;20182;-78
2022/01/15 05:54:56;;;;;;;28.45;16.52;;;;;;;;;;5026373;28;20186;-78
2022/01/15 05:57:23;;;;;;;29.73;16.50;;;;;;;;;;5027329;28;20178;-78
2022/01/15 05:59:51;;;;;;;26.20;17.65;;;;;;;;;;5022667;28;20202;-78
2022/01/15 06:02:17;;;;;;;24.95;17.65;;;;;;;;;;5026104;28;20199;-78
2022/01/15 06:04:43;;;;;;;24.88;17.85;;;;;;;;;;5028513;28;20213;-78
2022/01/15 06:07:09;;;;;;;28.17;18.48;;;;;;;;;;5022717;28;20175;-78
2022/01/15 06:09:35;;;;;;;28.25;19.90;;;;;;;;;;5023388;28;20463;-78
2022/01/15 06:12:02;;;;;;;30.27;18.73;;;;;;;;;;5026885;28;20194;-78
2022/01/15 06:14:29;;;;;;;28.98;18.05;;;;;;;;;;5025658;28;20193;-78
2022/01/15 06:16:55;;;;;;;33.13;18.85;;;;;;;;;;5027424;28;20174;-78
2022/01/15 06:19:21;;;;;;;24.20;19.42;;;;;;;;;;5025184;28;20201;-78
2022/01/15 06:21:47;;;;;;;25.38;17.38;;;;;;;;;;5026646;28;20197;-78
2022/01/15 06:24:13;;;;;;;28.48;18.58;;;;;;;;;;5026055;28;20206;-78
2022/01/15 06:26:39;;;;;;;26.95;17.30;;;;;;;;;;5027660;28;20410;-78
2022/01/15 06:29:05;;;;;;;30.58;18.10;;;;;;;;;;5026475;28;20202;-78
2022/01/15 06:31:32;;;;;;;25.85;16.30;;;;;;;;;;5024247;28;20183;-78
2022/01/15 06:33:58;;;;;;;28.88;17.23;;;;;;;;;;5028116;28;20210;-78
2022/01/15 06:36:25;;;;;;;28.48;17.23;;;;;;;;;;5026907;28;20414;-78
2022/01/15 06:38:51;;;;;;;25.15;16.75;;;;;;;;;;5022835;28;20186;-78
2022/01/15 06:41:17;;;;;;;24.67;17.45;;;;;;;;;;4987814;28;20653;-78
2022/01/15 06:43:43;;;;;;;27.58;17.55;;;;;;;;;;4992928;28;20311;-78
2022/01/15 06:46:09;;;;;;;30.35;16.33;;;;;;;;;;4987235;28;20207;-78
2022/01/15 06:48:35;;;;;;;25.27;17.13;;;;;;;;;;5005103;28;20179;-79
2022/01/15 06:51:01;;;;;;;30.38;18.33;;;;;;;;;;4991717;28;20191;-79
2022/01/15 06:53:29;;;;;;;32.22;17.75;;;;;;;;;;5006282;28;20214;-78
2022/01/15 06:55:54;;;;;;;33.25;18.20;;;;;;;;;;5006887;28;20176;-78
2022/01/15 06:58:22;;;;;;;26.10;17.40;;;;;;;;;;4993110;28;20194;-78
2022/01/15 07:00:49;;;;;;;25.48;17.60;;;;;;;;;;4998019;28;20194;-79
2022/01/15 07:03:14;;;;;;;28.58;18.90;;;;;;;;;;4992933;28;20211;-79
2022/01/15 07:05:40;;;;;;;28.42;17.33;;;;;;;;;;5005676;28;20250;-78
2022/01/15 07:08:07;;;;;;;28.10;17.15;;;;;;;;;;4987238;28;20191;-78
2022/01/15 07:10:33;;;;;;;24.75;17.02;;;;;;;;;;5010433;28;20640;-79
2022/01/15 07:12:59;;;;;;;26.15;16.58;;;;;;;;;;4991705;28;20191;-79
2022/01/15 07:15:25;;;;;;;26.05;14.93;;;;;;;;;;4980409;28;20531;-79
2022/01/15 07:17:52;;;;;;;24.80;14.75;;;;;;;;;;4978267;28;20450;-78
2022/01/15 07:20:19;;;;;;;28.35;16.45;;;;;;;;;;5000602;28;20187;-78
2022/01/15 07:22:45;;;;;;;26.95;16.40;;;;;;;;;;4977346;28;20199;-78
2022/01/15 07:25:11;;;;;;;23.35;15.27;;;;;;;;;;4991194;28;20179;-78
2022/01/15 07:27:38;;;;;;;29.70;17.85;;;;;;;;;;4985093;28;20191;-78
2022/01/15 07:30:05;;;;;;;25.10;17.83;;;;;;;;;;4990978;28;20191;-78
2022/01/15 07:32:31;;;;;;;28.27;18.52;;;;;;;;;;4988546;28;20217;-82
2022/01/15 07:34:57;;;;;;;28.45;17.83;;;;;;;;;;4976024;28;20211;-81
2022/01/15 07:37:23;;;;;;;28.33;18.10;;;;;;;;;;4987543;28;20175;-81
2022/01/15 07:39:49;;;;;;;27.20;18.67;;;;;;;;;;4997975;28;20842;-81
2022/01/15 07:42:15;;;;;;;31.60;16.92;;;;;;;;;;5011313;28;20191;-81
2022/01/15 07:44:41;;;;;;;32.42;18.73;;;;;;;;;;5010423;28;20256;-80
2022/01/15 07:47:08;;;;;;;26.75;16.80;;;;;;;;;;5018796;28;20188;-81
2022/01/15 07:49:34;;;;;;;28.10;18.13;;;;;;;;;;5021254;28;20190;-80
2022/01/15 07:52:00;;;;;;;30.60;18.20;;;;;;;;;;5012859;28;20183;-81
2022/01/15 07:54:26;;;;;;;29.55;18.92;;;;;;;;;;5019415;28;20268;-81
2022/01/15 07:56:55;;;;;;;25.17;18.13;;;;;;;;;;5013700;28;20597;-81
2022/01/15 07:59:21;;;;;;;26.70;17.10;;;;;;;;;;5020591;28;20760;-80
2022/01/15 08:01:47;;;;;;;25.80;16.52;;;;;;;;;;5012680;28;21675;-82
2022/01/15 08:04:13;;;;;;;33.00;21.00;;;;;;;;;;5017028;28;20255;-80
2022/01/15 08:06:41;;;;;;;28.25;18.92;;;;;;;;;;5021528;28;20183;-81
2022/01/15 08:09:07;;;;;;;29.10;19.50;;;;;;;;;;5025315;28;20194;-81
2022/01/15 08:11:33;;;;;;;31.52;20.60;;;;;;;;;;5026390;28;20183;-82
2022/01/15 08:13:59;;;;;;;29.92;20.67;;;;;;;;;;5027651;28;20187;-82
2022/01/15 08:16:25;;;;;;;30.20;19.38;;;;;;;;;;5028167;28;20190;-82
2022/01/15 08:18:51;;;;;;;30.20;20.77;;;;;;;;;;5023910;28;20190;-83
2022/01/15 08:21:17;;;;;;;29.60;19.70;;;;;;;;;;5018435;28;20182;-82
2022/01/15 08:23:43;;;;;;;29.77;20.95;;;;;;;;;;5022487;28;20245;-83
2022/01/15 08:26:09;;;;;;;34.10;20.80;;;;;;;;;;5022811;28;20183;-82
2022/01/15 08:28:37;;;;;;;39.22;21.95;;;;;;;;;;5014626;28;20206;-82
2022/01/15 08:31:05;;;;;;;32.45;20.88;;;;;;;;;;5020773;28;20217;-82
2022/01/15 08:33:31;;;;;;;34.30;23.35;;;;;;;;;;5021430;28;20221;-83
2022/01/15 08:35:57;;;;;;;29.92;19.83;;;;;;;;;;5022032;28;20264;-82
2022/01/15 08:38:23;;;;;;;33.83;21.45;;;;;;;;;;5020549;28;20595;-82
2022/01/15 08:40:49;;;;;;;35.38;22.10;;;;;;;;;;5021399;28;20242;-82
2022/01/15 08:43:15;;;;;;;33.17;22.95;;;;;;;;;;5022193;28;20210;-83
2022/01/15 08:45:42;;;;;;;46.53;32.53;;;;;;;;;;5021264;28;20193;-82
2022/01/15 08:48:08;;;;;;;34.97;23.30;;;;;;;;;;5020177;28;20174;-82
2022/01/15 08:50:35;;;;;;;36.67;22.77;;;;;;;;;;5019892;28;20183;-81
2022/01/15 08:53:01;;;;;;;29.52;19.20;;;;;;;;;;5020705;28;20179;-82
2022/01/15 08:55:29;;;;;;;31.42;21.02;;;;;;;;;;5022143;28;20174;-82
2022/01/15 08:57:58;;;;;;;31.30;19.92;;;;;;;;;;5021774;28;20197;-82
2022/01/15 09:00:25;;;;;;;29.98;19.88;;;;;;;;;;5017106;28;20187;-82
2022/01/15 09:02:51;;;;;;;35.03;22.00;;;;;;;;;;5014500;28;20275;-82
2022/01/15 09:05:18;;;;;;;36.25;20.13;;;;;;;;;;5005236;28;20504;-82
2022/01/15 09:07:44;;;;;;;31.42;21.77;;;;;;;;;;5020017;28;20187;-82
2022/01/15 09:10:10;;;;;;;38.58;22.25;;;;;;;;;;5019123;28;20238;-81
2022/01/15 09:12:36;;;;;;;34.15;22.70;;;;;;;;;;5019985;28;20281;-81
2022/01/15 09:15:02;;;;;;;34.83;21.30;;;;;;;;;;5019638;28;20188;-81
2022/01/15 09:17:28;;;;;;;29.40;22.85;;;;;;;;;;5018214;28;20257;-81
2022/01/15 09:19:55;;;;;;;36.30;21.98;;;;;;;;;;5018408;28;20465;-81
2022/01/15 09:22:22;;;;;;;31.67;21.25;;;;;;;;;;5022318;28;20441;-81
2022/01/15 09:24:48;;;;;;;30.38;21.92;;;;;;;;;;5020326;28;20214;-81
2022/01/15 09:30:12;;;;;;;32.45;21.75;;;;;;;;;;5014944;28;20189;-81
2022/01/15 09:32:38;;;;;;;37.30;22.73;;;;;;;;;;5012286;28;20212;-80
2022/01/15 09:35:05;;;;;;;38.92;24.08;;;;;;;;;;5009096;28;20219;-81
2022/01/15 09:37:31;;;;;;;33.30;23.20;;;;;;;;;;5018360;28;20271;-80
2022/01/15 09:39:57;;;;;;;35.33;24.27;;;;;;;;;;5018379;28;20226;-80
2022/01/15 09:42:24;;;;;;;45.22;24.48;;;;;;;;;;5015644;28;20187;-81
2022/01/15 09:44:51;;;;;;;36.45;24.35;;;;;;;;;;5017636;28;20277;-79
2022/01/15 09:47:17;;;;;;;36.97;24.00;;;;;;;;;;5017152;28;20183;-80
2022/01/15 09:49:44;;;;;;;36.47;25.08;;;;;;;;;;5019883;28;20178;-79
2022/01/15 09:52:11;;;;;;;37.50;25.02;;;;;;;;;;5014610;28;20182;-80
2022/01/15 09:54:38;;;;;;;38.10;26.10;;;;;;;;;;5019542;28;20190;-80
2022/01/15 09:57:04;;;;;;;41.50;28.17;;;;;;;;;;5017006;28;20178;-80
2022/01/15 09:59:30;;;;;;;41.42;28.15;;;;;;;;;;5004440;28;20183;-80
2022/01/15 10:02:00;;;;;;;41.20;28.80;;;;;;;;;;5005072;28;20175;-80
2022/01/15 10:04:28;;;;;;;41.90;29.40;;;;;;;;;;5015363;28;20190;-80
2022/01/15 10:07:06;;;;;;;40.60;29.23;;;;;;;;;;5015750;28;20182;-80
2022/01/15 10:09:32;;;;;;;36.17;26.58;;;;;;;;;;5017670;28;20179;-81
2022/01/15 10:11:58;;;;;;;46.80;28.83;;;;;;;;;;5015354;28;20179;-81
2022/01/15 10:14:27;;;;;;;41.17;29.23;;;;;;;;;;5009227;28;20218;-81
2022/01/15 10:16:55;;;;;;;38.08;26.45;;;;;;;;;;5022701;28;20224;-81
2022/01/15 10:19:29;;;;;;;43.72;25.83;;;;;;;;;;5012484;28;20179;-81
2022/01/15 10:22:06;;;;;;;35.75;26.92;;;;;;;;;;5016148;28;20181;-80
2022/01/15 10:24:32;;;;;;;45.60;28.70;;;;;;;;;;5020750;28;20201;-80
2022/01/15 10:27:16;;;;;;;45.58;27.98;;;;;;;;;;5019853;28;20186;-81
2022/01/15 10:29:42;;;;;;;40.70;28.50;;;;;;;;;;5011005;28;20201;-81
2022/01/15 10:32:13;;;;;;;40.17;26.88;;;;;;;;;;5007647;28;20183;-81
2022/01/15 10:34:42;;;;;;;38.55;27.83;;;;;;;;;;5022308;28;20175;-81
2022/01/15 10:37:12;;;;;;;44.75;27.55;;;;;;;;;;5013851;28;20187;-81
2022/01/15 10:39:38;;;;;;;40.67;29.88;;;;;;;;;;5015504;28;20222;-81
2022/01/15 10:42:15;;;;;;;44.63;29.15;;;;;;;;;;5008171;28;21023;-80
2022/01/15 10:44:42;;;;;;;39.42;27.67;;;;;;;;;;5010161;28;20221;-81
2022/01/15 10:47:18;;;;;;;49.70;30.75;;;;;;;;;;5011558;28;20195;-81
2022/01/15 10:49:47;;;;;;;43.35;28.77;;;;;;;;;;5021348;28;20175;-80
2022/01/15 10:52:18;;;;;;;47.72;30.63;;;;;;;;;;5016233;28;20366;-80
2022/01/15 10:55:03;;;;;;;45.60;29.70;;;;;;;;;;5016457;28;20240;-80
2022/01/15 10:57:32;;;;;;;42.58;30.23;;;;;;;;;;5013799;28;20206;-80
2022/01/15 11:00:06;;;;;;;47.92;30.65;;;;;;;;;;5016206;28;20253;-80
2022/01/15 11:02:32;;;;;;;42.22;29.95;;;;;;;;;;5014716;28;20174;-80
2022/01/15 11:04:58;;;;;;;43.53;30.98;;;;;;;;;;5006822;28;20194;-81
2022/01/15 11:07:25;;;;;;;48.15;31.67;;;;;;;;;;5022761;28;20642;-81
2022/01/15 11:09:53;;;;;;;47.03;30.23;;;;;;;;;;5016623;28;20605;-81
2022/01/15 11:12:19;;;;;;;48.55;30.73;;;;;;;;;;5015670;28;20191;-81
2022/01/15 11:14:45;;;;;;;49.00;30.27;;;;;;;;;;5010631;28;20186;-81
2022/01/15 11:17:12;;;;;;;50.75;30.90;;;;;;;;;;5007067;28;20269;-81
2022/01/15 11:19:40;;;;;;;41.83;30.63;;;;;;;;;;5019394;28;20201;-81
2022/01/15 11:22:07;;;;;;;44.85;29.10;;;;;;;;;;5019792;28;20221;-82
2022/01/15 11:24:33;;;;;;;44.78;30.85;;;;;;;;;;5014479;28;20206;-81
2022/01/15 11:27:00;;;;;;;44.10;31.65;;;;;;;;;;5017886;28;20175;-82
2022/01/15 11:29:27;;;;;;;45.90;31.17;;;;;;;;;;5013930;28;20175;-82
2022/01/15 11:31:53;;;;;;;37.22;27.73;;;;;;;;;;5003727;28;20172;-82
2022/01/15 11:34:27;;;;;;;45.00;31.23;;;;;;;;;;5020147;28;20191;-82
2022/01/15 11:36:53;;;;;;;46.80;32.28;;;;;;;;;;5017999;28;20187;-82
2022/01/15 11:39:29;;;;;;;46.30;30.25;;;;;;;;;;5015321;28;20226;-82
2022/01/15 11:41:55;;;;;;;44.28;29.83;;;;;;;;;;5019473;28;20249;-82
2022/01/15 11:44:35;;;;;;;42.03;30.90;;;;;;;;;;5019075;28;20234;-82
2022/01/15 11:47:13;;;;;;;36.72;30.38;;;;;;;;;;5004908;28;20589;-82
2022/01/15 11:49:44;;;;;;;45.85;31.83;;;;;;;;;;5022181;28;20251;-82
2022/01/15 11:52:12;;;;;;;46.78;32.65;;;;;;;;;;5011908;28;20639;-82
2022/01/15 11:54:39;;;;;;;46.80;35.17;;;;;;;;;;5019702;28;20195;-82
2022/01/15 11:57:19;;;;;;;46.97;31.80;;;;;;;;;;5017021;28;20643;-82
2022/01/15 11:59:47;;;;;;;42.88;32.50;;;;;;;;;;5006203;28;20187;-82
2022/01/15 12:02:25;;;;;;;42.63;33.05;;;;;;;;;;5018085;28;20218;-81
2022/01/15 12:04:51;;;;;;;52.90;33.08;;;;;;;;;;5009473;28;20577;-80
2022/01/15 12:07:19;;;;;;;45.55;34.25;;;;;;;;;;5018747;28;20206;-81
2022/01/15 12:09:52;;;;;;;43.72;32.65;;;;;;;;;;5018248;28;20190;-81
2022/01/15 12:12:18;;;;;;;48.20;31.63;;;;;;;;;;5014837;28;20183;-81
2022/01/15 12:14:47;;;;;;;44.45;33.95;;;;;;;;;;5005830;28;20246;-81
2022/01/15 12:17:31;;;;;;;49.70;34.30;;;;;;;;;;5001376;28;20191;-81
2022/01/15 12:19:58;;;;;;;40.58;29.58;;;;;;;;;;5004527;28;20182;-80
2022/01/15 12:22:36;;;;;;;51.95;32.40;;;;;;;;;;5013401;28;20178;-81
2022/01/15 12:25:03;;;;;;;41.63;30.13;;;;;;;;;;5010037;28;20696;-81
2022/01/15 12:27:30;;;;;;;39.45;30.17;;;;;;;;;;5007824;28;20502;-81
2022/01/15 12:30:06;;;;;;;44.40;32.08;;;;;;;;;;5020089;28;20178;-81
2022/01/15 12:32:33;;;;;;;37.40;28.83;;;;;;;;;;5007919;28;20186;-81
2022/01/15 12:35:00;;;;;;;45.25;31.33;;;;;;;;;;5004462;28;20179;-81
2022/01/15 12:37:26;;;;;;;40.33;30.58;;;;;;;;;;5020133;28;20766;-81
2022/01/15 12:39:52;;;;;;;49.75;32.78;;;;;;;;;;5011025;28;20238;-81
2022/01/15 12:42:20;;;;;;;42.70;31.48;;;;;;;;;;5009443;28;20187;-81
2022/01/15 12:44:51;;;;;;;47.53;34.70;;;;;;;;;;5008224;28;20260;-79
2022/01/15 12:47:17;;;;;;;53.38;37.45;;;;;;;;;;5009973;28;20185;-80
2022/01/15 12:49:46;;;;;;;49.45;36.05;;;;;;;;;;5011200;28;20384;-79
2022/01/15 12:52:12;;;;;;;48.70;35.80;;;;;;;;;;5014127;28;20230;-79
2022/01/15 12:54:38;;;;;;;37.25;31.52;;;;;;;;;;5012777;28;20202;-79
2022/01/15 12:57:05;;;;;;;43.25;32.42;;;;;;;;;;5006294;28;20183;-80
2022/01/15 12:59:33;;;;;;;44.42;33.22;;;;;;;;;;5018019;28;20213;-80
2022/01/15 13:01:59;;;;;;;43.85;35.92;;;;;;;;;;5009349;28;20181;-80
2022/01/15 13:04:25;;;;;;;39.85;33.25;;;;;;;;;;5014434;28;20392;-80
2022/01/15 13:06:58;;;;;;;41.85;30.33;;;;;;;;;;5020924;28;20261;-80
2022/01/15 13:09:37;;;;;;;46.55;31.50;;;;;;;;;;5012880;28;20210;-80
2022/01/15 13:12:04;;;;;;;40.75;29.23;;;;;;;;;;5011129;28;20179;-80
2022/01/15 13:14:43;;;;;;;37.10;27.98;;;;;;;;;;5017039;28;20227;-79
2022/01/15 13:17:23;;;;;;;51.38;30.25;;;;;;;;;;5017471;28;20663;-79
2022/01/15 13:19:50;;;;;;;44.97;30.17;;;;;;;;;;5014649;28;20205;-79
2022/01/15 13:22:19;;;;;;;42.40;28.33;;;;;;;;;;5020720;28;20217;-79
2022/01/15 13:24:45;;;;;;;42.28;30.33;;;;;;;;;;5009854;28;20278;-79
2022/01/15 13:27:11;;;;;;;38.10;30.20;;;;;;;;;;5006616;28;20178;-79
2022/01/15 13:29:42;;;;;;;41.53;29.90;;;;;;;;;;5015445;28;20202;-80
2022/01/15 13:32:09;;;;;;;43.13;32.17;;;;;;;;;;5016935;28;20198;-81
2022/01/15 13:34:36;;;;;;;38.50;29.63;;;;;;;;;;5018215;28;20179;-79
2022/01/15 13:37:24;;;;;;;36.83;29.73;;;;;;;;;;5020076;28;20194;-79
2022/01/15 13:39:50;;;;;;;39.05;31.30;;;;;;;;;;5010375;28;20231;-79
2022/01/15 13:42:17;;;;;;;41.45;31.35;;;;;;;;;;5007340;28;20202;-79
2022/01/15 13:44:43;;;;;;;43.72;32.10;;;;;;;;;;5016666;28;20210;-79
2022/01/15 13:47:11;;;;;;;47.60;34.05;;;;;;;;;;5017957;28;20242;-79
2022/01/15 13:55:14;;;;;;;43.58;33.28;;;;;;;;;;5024873;28;20293;-81
2022/01/15 13:57:40;;;;;;;44.35;31.35;;;;;;;;;;5015825;28;20187;-80
2022/01/15 14:00:10;;;;;;;41.42;31.63;;;;;;;;;;5011750;28;20187;-80
2022/01/15 14:02:36;;;;;;;42.10;30.65;;;;;;;;;;5021937;28;21007;-79
2022/01/15 14:05:16;;;;;;;43.95;30.88;;;;;;;;;;5022302;28;20209;-78
2022/01/15 14:07:43;;;;;;;39.67;30.58;;;;;;;;;;5018325;28;20608;-79
2022/01/15 14:10:13;;;;;;;44.92;33.15;;;;;;;;;;5030308;28;20183;-79
2022/01/15 14:12:39;;;;;;;46.50;31.52;;;;;;;;;;5022649;28;20189;-79
2022/01/15 14:15:13;;;;;;;41.47;30.27;;;;;;;;;;5022378;28;20195;-79
2022/01/15 14:17:43;;;;;;;37.38;27.55;;;;;;;;;;5017448;28;20213;-78
2022/01/15 14:22:43;;;;;;;34.42;26.58;;;;;;;;;;5011196;28;20183;-79
2022/01/15 14:25:20;;;;;;;39.90;28.25;;;;;;;;;;5010856;28;20261;-81
2022/01/15 14:27:47;;;;;;;37.47;27.30;;;;;;;;;;5021026;28;20192;-80
2022/01/15 14:30:13;;;;;;;36.60;27.35;;;;;;;;;;5017011;28;20234;-80
2022/01/15 14:32:39;;;;;;;38.47;25.40;;;;;;;;;;5008199;28;20190;-80
2022/01/15 14:35:06;;;;;;;38.10;28.13;;;;;;;;;;5021053;28;20586;-82
2022/01/15 14:37:32;;;;;;;40.63;28.08;;;;;;;;;;5020304;28;20175;-80
2022/01/15 14:39:59;;;;;;;37.25;27.95;;;;;;;;;;5023666;28;20230;-79
2022/01/15 14:42:25;;;;;;;40.35;27.92;;;;;;;;;;5019408;28;20594;-80
2022/01/15 14:44:52;;;;;;;34.03;26.00;;;;;;;;;;5020914;28;20206;-79
2022/01/15 14:47:18;;;;;;;35.58;26.02;;;;;;;;;;5004531;28;20191;-79
2022/01/15 14:49:44;;;;;;;30.20;23.95;;;;;;;;;;5009114;28;20176;-79